Airfield :







YOU CAN JOIN US ON...

 
LOGIN :

Register | Disclaimer

   EN    FR    IT 

 









Legend :    VFR   Marginal VFR   IFR   Intensive IFR   Very Intensive IFR
Visi :
Ceiling :
>= 8 km
>= 3000ft
5 to 8 km
1000 to 3000 ft
1500m to 5 km
500 to 1000 ft
800 to 1500m
200 to 500 ft
< 800m
< 200 ft
Symbols :   Thunderstorms  Fog  Heavy snow  Heavy precipitations  Wind > 20 kt






- Airport Elevation : 1808 ft
- IATA code : YWK


CYWK - Wabush

CURRENT METAR :
  • 270200Z 04017G24KT 2SM -SN OVC038 M10/M13 A2966 RMK SC8 SLP085

EXPIRED METARs :
  • 270100Z 03013G18KT 1SM -SN OVC026 M08/M11 A2966 RMK SC8 /S01/ SLP085
  • 270000Z 03010KT 1SM -SN FEW010 OVC022 M07/M08 A2966 RMK SF2SC8 SLP082

TAF TAF CYWK
Valid from the 27 at 02:00 until the 27 at 14:00 UTC


270138Z 2702/2714 04012G22KT 11/2SM -SN OVC015
TEMPO 2702/2705 6SM -SN OVC025
FM270500 04012G22KT P6SM OVC025
TEMPO 2705/2714 21/2SM -SN OVC015 RMK NXT FCST BY 270800Z



MET'MAP, your aeronautical weather chart ! - Copyright ORBIFLY December 2007 - Disclaimer

ORBIFLY MET'MAP TEAM :

Programming & Development : Alexandra Zaïnal
Concept & original design : Baudouin d'Aumeries
Assistance for programming : Marc-Olivier Méhu
Technical & hardware support : Manuel Goepfert

Contact : metmap@orbifly.com




SOURCES & CREDITS :

   NOAA